Time;durP1;ratioP1;P1;durP2;ratioP2;P2;SDS_P1;SDS_P2;PMS_P1;PMS_P2;Temp;Humidity;BMP_temperature;BMP_pressure;BME280_temperature;BME280_humidity;BME280_pressure;Samples;Min_cycle;Max_cycle;Signal;HPM_P1;HPM_P2
2022/05/10 00:00:53;;;;;;;8.45;4.35;;;17.80;57.80;;;;;;5137763;27;20033;-68
2022/05/10 00:03:21;;;;;;;8.95;4.97;;;17.80;57.90;;;;;;5113133;27;20389;-68
2022/05/10 00:05:47;;;;;;;8.18;4.57;;;17.80;57.90;;;;;;5126929;27;20352;-68
2022/05/10 00:08:15;;;;;;;11.50;4.38;;;17.80;58.00;;;;;;5130667;27;20023;-68
2022/05/10 00:10:42;;;;;;;9.90;4.85;;;17.80;58.00;;;;;;5118722;27;20035;-68
2022/05/10 00:13:07;;;;;;;10.48;4.78;;;17.70;58.00;;;;;;5121397;27;20500;-68
2022/05/10 00:15:33;;;;;;;9.50;4.82;;;17.70;58.10;;;;;;5130233;27;20118;-68
2022/05/10 00:17:59;;;;;;;9.57;4.78;;;17.70;58.20;;;;;;5130953;27;20058;-68
2022/05/10 00:20:27;;;;;;;7.70;4.47;;;17.70;58.40;;;;;;5118102;27;20043;-68
2022/05/10 00:22:53;;;;;;;10.00;5.15;;;17.70;58.60;;;;;;5129340;27;20034;-68
2022/05/10 00:25:23;;;;;;;9.52;4.80;;;17.60;58.50;;;;;;5115532;27;20028;-67
2022/05/10 00:27:49;;;;;;;9.07;4.43;;;17.60;58.70;;;;;;5123830;27;20088;-68
2022/05/10 00:30:14;;;;;;;11.27;4.43;;;17.60;58.70;;;;;;5120395;27;20436;-68
2022/05/10 00:32:41;;;;;;;10.48;4.68;;;17.60;58.80;;;;;;5120464;27;20429;-68
2022/05/10 00:35:16;;;;;;;8.32;4.88;;;17.50;58.80;;;;;;5124899;27;20047;-68
2022/05/10 00:37:44;;;;;;;10.85;4.95;;;17.50;59.00;;;;;;5129360;27;20023;-68
2022/05/10 00:40:11;;;;;;;9.30;4.40;;;17.50;59.00;;;;;;5136862;27;20050;-68
2022/05/10 00:43:03;;;;;;;9.18;4.80;;;17.50;59.10;;;;;;5133356;27;20023;-68
2022/05/10 00:45:44;;;;;;;10.65;5.32;;;17.50;59.40;;;;;;5115466;27;20089;-68
2022/05/10 00:48:32;;;;;;;12.70;5.05;;;17.40;59.40;;;;;;5104448;27;20059;-68
2022/05/10 00:51:15;;;;;;;8.85;4.70;;;17.40;59.60;;;;;;5137099;27;20027;-68
2022/05/10 00:54:05;;;;;;;11.00;5.72;;;17.40;59.70;;;;;;5126079;27;20028;-68
2022/05/10 00:56:59;;;;;;;9.75;4.72;;;17.30;59.80;;;;;;5123894;27;20031;-68
2022/05/10 00:59:50;;;;;;;10.95;4.82;;;17.30;59.90;;;;;;5116760;27;20420;-68
2022/05/10 01:02:32;;;;;;;8.38;4.70;;;17.30;60.00;;;;;;5134894;27;20041;-68
2022/05/10 01:05:14;;;;;;;10.52;5.30;;;17.20;60.00;;;;;;5127019;27;20035;-68
2022/05/10 01:07:52;;;;;;;11.45;5.60;;;17.20;60.20;;;;;;5133714;27;20393;-68
2022/05/10 01:10:37;;;;;;;11.07;5.90;;;17.20;60.40;;;;;;5134202;27;20398;-68
2022/05/10 01:13:28;;;;;;;13.07;6.57;;;17.20;60.40;;;;;;5132392;27;20026;-68
2022/05/10 01:16:09;;;;;;;11.30;6.38;;;17.20;60.60;;;;;;5118667;27;20038;-68
2022/05/10 01:18:35;;;;;;;11.10;6.40;;;17.20;60.80;;;;;;5128532;27;20084;-68
2022/05/10 01:21:12;;;;;;;12.30;6.68;;;17.20;60.90;;;;;;5118170;27;20041;-67
2022/05/10 01:23:55;;;;;;;12.95;6.20;;;17.20;61.20;;;;;;5132399;27;20033;-68
2022/05/10 01:27:00;;;;;;;10.77;6.72;;;17.20;61.30;;;;;;5121146;27;20103;-68
2022/05/10 01:29:37;;;;;;;10.48;6.53;;;17.20;61.30;;;;;;5116234;27;20075;-67
2022/05/10 01:34:55;;;;;;;10.73;6.32;;;17.10;61.50;;;;;;5123849;27;20463;-68
2022/05/10 01:37:24;;;;;;;11.77;6.68;;;17.10;61.60;;;;;;5129056;27;20083;-68
2022/05/10 01:39:58;;;;;;;15.40;7.45;;;17.10;61.80;;;;;;5127131;27;20488;-68
2022/05/10 01:43:02;;;;;;;10.27;6.78;;;17.10;62.00;;;;;;5133925;27;20417;-67
2022/05/10 01:46:11;;;;;;;12.75;7.50;;;17.10;62.10;;;;;;5094247;28;20059;-68
2022/05/10 01:48:39;;;;;;;12.50;6.35;;;17.10;62.20;;;;;;5100111;27;20027;-68
2022/05/10 01:51:14;;;;;;;10.63;6.82;;;17.00;62.20;;;;;;5114463;27;20406;-68
2022/05/10 01:53:41;;;;;;;10.48;7.20;;;17.00;62.40;;;;;;5121691;27;20344;-68
2022/05/10 01:56:17;;;;;;;12.60;7.05;;;17.00;63.10;;;;;;5132027;27;20062;-68
2022/05/10 01:58:45;;;;;;;13.55;6.97;;;17.00;62.60;;;;;;5131088;27;20441;-68
2022/05/10 02:01:24;;;;;;;10.90;7.07;;;17.00;62.60;;;;;;5114768;28;20058;-68
2022/05/10 02:04:08;;;;;;;12.90;7.63;;;17.00;62.80;;;;;;5114157;28;20027;-68
2022/05/10 02:06:46;;;;;;;12.32;7.43;;;16.90;62.80;;;;;;5104060;27;20035;-68
2022/05/10 02:09:34;;;;;;;11.32;6.95;;;16.90;63.00;;;;;;5128772;27;20080;-68
2022/05/10 02:12:07;;;;;;;11.57;7.25;;;16.90;63.00;;;;;;5115342;27;20041;-68
2022/05/10 02:14:42;;;;;;;13.65;7.95;;;16.90;63.20;;;;;;5130017;27;20033;-68
2022/05/10 02:17:20;;;;;;;11.13;7.80;;;16.90;63.40;;;;;;5132947;27;20027;-68
2022/05/10 02:19:53;;;;;;;10.57;7.72;;;16.80;63.40;;;;;;5129144;27;20038;-68
2022/05/10 02:22:31;;;;;;;13.70;8.05;;;16.80;63.50;;;;;;5112871;28;20026;-68
2022/05/10 02:25:07;;;;;;;13.95;7.45;;;16.80;63.70;;;;;;5117300;27;20032;-68
2022/05/10 02:27:39;;;;;;;13.07;6.93;;;16.80;63.70;;;;;;5128849;27;20038;-68
2022/05/10 02:30:08;;;;;;;12.00;7.45;;;16.80;63.80;;;;;;5124533;27;20119;-67
2022/05/10 02:35:23;;;;;;;14.25;7.68;;;16.70;64.00;;;;;;5124320;28;20043;-68
2022/05/10 02:37:48;;;;;;;13.65;8.65;;;16.70;64.00;;;;;;5106257;28;20067;-68
2022/05/10 02:40:15;;;;;;;14.25;8.02;;;16.70;64.10;;;;;;5125161;27;20115;-68
2022/05/10 02:42:45;;;;;;;11.88;7.75;;;16.70;64.20;;;;;;5133000;27;20094;-68
2022/05/10 02:45:12;;;;;;;11.13;7.25;;;16.70;64.40;;;;;;5126657;27;20023;-68
2022/05/10 02:47:42;;;;;;;11.40;7.43;;;16.70;64.40;;;;;;5133343;27;20031;-68
2022/05/10 02:50:24;;;;;;;13.80;7.82;;;16.70;64.50;;;;;;5129820;27;20059;-68
2022/05/10 02:52:51;;;;;;;12.63;7.70;;;16.70;64.60;;;;;;5130065;28;20066;-68
2022/05/10 02:55:26;;;;;;;12.40;8.35;;;16.60;64.60;;;;;;5119492;27;20031;-68
2022/05/10 02:57:55;;;;;;;11.95;8.32;;;16.60;64.90;;;;;;5129018;28;20027;-68
2022/05/10 03:00:24;;;;;;;12.60;7.75;;;16.70;65.30;;;;;;5127220;28;20362;-68
2022/05/10 03:02:56;;;;;;;13.32;8.15;;;16.70;64.80;;;;;;5115743;28;20422;-68
2022/05/10 03:05:21;;;;;;;;;;;16.70;64.80;;;;;;5124774;27;20470;-68
2022/05/10 03:07:53;;;;;;;11.32;6.80;;;16.70;64.60;;;;;;5117115;28;19990;-68
2022/05/10 03:10:20;;;;;;;11.73;7.75;;;16.60;64.70;;;;;;5118976;28;20100;-68
2022/05/10 03:12:46;;;;;;;12.32;8.10;;;16.60;64.80;;;;;;5130939;27;20035;-68
2022/05/10 03:15:11;;;;;;;12.52;7.85;;;16.60;64.90;;;;;;5122789;27;20023;-68
2022/05/10 03:17:37;;;;;;;12.00;7.65;;;16.60;64.90;;;;;;5145514;27;20107;-68
2022/05/10 03:20:03;;;;;;;11.10;8.45;;;16.60;65.00;;;;;;5114966;28;20027;-68
2022/05/10 03:22:29;;;;;;;14.43;8.80;;;16.60;65.10;;;;;;5131760;28;20408;-68
2022/05/10 03:24:55;;;;;;;14.38;8.82;;;16.60;65.20;;;;;;5128614;28;20110;-68
2022/05/10 03:27:22;;;;;;;14.27;8.50;;;16.60;65.30;;;;;;5129619;28;20035;-68
2022/05/10 03:29:48;;;;;;;13.60;8.82;;;16.60;65.30;;;;;;5116498;28;20031;-67
2022/05/10 03:32:14;;;;;;;13.85;8.27;;;16.60;65.40;;;;;;5128135;27;20487;-68
2022/05/10 03:34:55;;;;;;;11.73;8.13;;;16.60;65.50;;;;;;5122406;28;20039;-68
2022/05/10 03:37:22;;;;;;;12.35;8.13;;;16.60;65.50;;;;;;5131461;28;20023;-68
2022/05/10 03:39:47;;;;;;;13.30;8.52;;;16.50;65.50;;;;;;5133923;27;20023;-68
2022/05/10 03:42:13;;;;;;;10.43;8.23;;;16.50;65.60;;;;;;5126369;27;20393;-68
2022/05/10 03:44:38;;;;;;;14.20;8.32;;;16.50;65.60;;;;;;5128526;27;20031;-68
2022/05/10 03:47:05;;;;;;;12.48;8.43;;;16.50;65.60;;;;;;5129312;27;20036;-68
2022/05/10 03:49:31;;;;;;;14.55;8.90;;;16.50;65.80;;;;;;5126440;27;20028;-68
2022/05/10 03:51:57;;;;;;;14.65;8.70;;;16.50;65.80;;;;;;5129402;27;20039;-67
2022/05/10 03:54:24;;;;;;;12.27;8.02;;;16.40;65.80;;;;;;5121817;27;20036;-67
2022/05/10 03:56:50;;;;;;;13.70;9.15;;;16.50;65.90;;;;;;5127958;27;20046;-68
2022/05/10 03:59:17;;;;;;;14.82;9.43;;;16.50;65.90;;;;;;5129470;27;20042;-67
2022/05/10 04:01:44;;;;;;;13.30;9.05;;;16.50;65.90;;;;;;5116724;27;20030;-67
2022/05/10 04:04:13;;;;;;;14.20;9.52;;;16.50;65.90;;;;;;5133233;27;20016;-68
2022/05/10 04:06:38;;;;;;;14.18;8.88;;;16.50;65.90;;;;;;5124308;27;20076;-68
2022/05/10 04:09:05;;;;;;;14.10;9.25;;;16.50;65.90;;;;;;5116629;27;20032;-67
2022/05/10 04:11:33;;;;;;;12.45;8.88;;;16.40;65.80;;;;;;5116703;27;20019;-67
2022/05/10 04:13:59;;;;;;;11.90;8.43;;;16.50;65.80;;;;;;5121586;27;20462;-68
2022/05/10 04:16:25;;;;;;;12.23;8.73;;;16.50;65.90;;;;;;5119370;27;20036;-68
2022/05/10 04:18:51;;;;;;;13.15;9.25;;;16.50;66.00;;;;;;5123405;27;20092;-68
2022/05/10 04:21:17;;;;;;;12.73;8.60;;;16.50;66.00;;;;;;5103980;28;20027;-68
2022/05/10 04:23:42;;;;;;;14.25;8.75;;;16.50;66.10;;;;;;5124136;27;20046;-67
2022/05/10 04:26:12;;;;;;;12.57;8.73;;;16.50;66.10;;;;;;5121040;27;20020;-67
2022/05/10 04:28:38;;;;;;;12.80;9.48;;;16.50;66.20;;;;;;5135419;27;20049;-67
2022/05/10 04:31:05;;;;;;;13.93;9.40;;;16.50;66.10;;;;;;5133754;27;20039;-67
2022/05/10 04:33:31;;;;;;;14.55;9.95;;;16.50;66.10;;;;;;5120921;27;20055;-67
2022/05/10 04:35:58;;;;;;;14.57;8.90;;;16.50;65.90;;;;;;5132651;27;20053;-67
2022/05/10 04:38:24;;;;;;;12.98;8.98;;;16.60;65.90;;;;;;5135224;27;20110;-67
2022/05/10 04:43:41;;;;;;;;;;;16.60;65.80;;;;;;5130363;27;20504;-66
2022/05/10 04:46:07;;;;;;;11.52;8.05;;;16.60;65.50;;;;;;5124561;27;19990;-67
2022/05/10 04:48:33;;;;;;;13.00;8.93;;;16.70;65.60;;;;;;5118434;27;20467;-68
2022/05/10 04:51:00;;;;;;;13.77;9.27;;;16.70;65.70;;;;;;5127955;27;20027;-68
2022/05/10 04:53:29;;;;;;;14.02;9.43;;;16.70;65.80;;;;;;5114694;28;20398;-68
2022/05/10 04:55:55;;;;;;;14.38;10.18;;;16.80;65.90;;;;;;5116033;27;20023;-68
2022/05/10 04:58:20;;;;;;;13.73;9.70;;;16.80;65.80;;;;;;5105821;27;20031;-68
2022/05/10 05:00:46;;;;;;;14.95;11.02;;;16.80;65.60;;;;;;5134055;27;20058;-68
2022/05/10 05:03:12;;;;;;;13.75;10.13;;;16.90;65.50;;;;;;5123434;27;20027;-68
2022/05/10 05:05:37;;;;;;;15.38;10.70;;;16.90;65.50;;;;;;5118529;27;20364;-68
2022/05/10 05:08:03;;;;;;;14.73;10.82;;;16.90;65.50;;;;;;5102568;28;20410;-68
2022/05/10 05:10:29;;;;;;;15.95;10.85;;;16.90;65.60;;;;;;5128656;27;20039;-68
2022/05/10 05:12:54;;;;;;;14.65;11.07;;;17.00;65.60;;;;;;5112987;27;20132;-68
2022/05/10 05:15:20;;;;;;;17.63;11.50;;;17.00;65.50;;;;;;5128636;27;20027;-68
2022/05/10 05:17:45;;;;;;;15.60;11.15;;;17.10;65.50;;;;;;5123921;27;20036;-68
2022/05/10 05:20:11;;;;;;;16.85;11.95;;;17.20;65.40;;;;;;5131320;27;20031;-68
2022/05/10 05:22:37;;;;;;;15.75;12.02;;;17.20;65.20;;;;;;5126357;27;20023;-68
2022/05/10 05:25:05;;;;;;;15.52;11.27;;;17.30;65.20;;;;;;5116425;27;20023;-68
2022/05/10 05:27:31;;;;;;;16.75;12.27;;;17.30;65.20;;;;;;5121967;27;20466;-68
2022/05/10 05:29:57;;;;;;;18.45;12.50;;;17.40;65.10;;;;;;5135274;27;20098;-68
2022/05/10 05:32:30;;;;;;;17.08;12.43;;;17.50;65.00;;;;;;5129680;27;20116;-67
2022/05/10 05:34:57;;;;;;;16.75;12.75;;;17.50;65.00;;;;;;5117786;27;20051;-67
2022/05/10 05:37:35;;;;;;;19.83;13.82;;;17.50;64.90;;;;;;5120198;27;20027;-67
2022/05/10 05:40:13;;;;;;;21.02;13.63;;;17.60;64.70;;;;;;5117686;27;20031;-67
2022/05/10 05:42:39;;;;;;;21.05;12.98;;;17.60;64.50;;;;;;5136400;27;20038;-67
2022/05/10 05:45:08;;;;;;;20.30;14.52;;;17.60;64.50;;;;;;5135959;27;20456;-67
2022/05/10 05:47:34;;;;;;;17.95;14.30;;;17.60;64.40;;;;;;5095972;28;20055;-67
2022/05/10 05:50:04;;;;;;;18.58;14.27;;;17.60;64.40;;;;;;5119536;27;20333;-66
2022/05/10 05:52:30;;;;;;;19.13;14.90;;;17.70;64.40;;;;;;5134012;27;20038;-66
2022/05/10 05:54:55;;;;;;;17.83;14.27;;;17.70;64.50;;;;;;5134944;27;20039;-66
2022/05/10 05:57:22;;;;;;;18.35;14.48;;;17.70;64.50;;;;;;5133264;27;20413;-66
2022/05/10 05:59:51;;;;;;;19.42;14.30;;;17.70;64.50;;;;;;5116645;27;20130;-67
2022/05/10 06:02:20;;;;;;;18.42;14.13;;;17.80;64.40;;;;;;5129786;27;20039;-68
2022/05/10 06:04:46;;;;;;;20.27;14.43;;;17.80;64.30;;;;;;5114823;28;20031;-67
2022/05/10 06:07:13;;;;;;;19.65;14.85;;;17.90;64.20;;;;;;5114995;28;20067;-67
2022/05/10 06:09:40;;;;;;;20.10;14.30;;;18.00;64.20;;;;;;5116990;27;20363;-68
2022/05/10 06:12:08;;;;;;;18.73;13.98;;;18.00;64.20;;;;;;5121073;27;20069;-67
2022/05/10 06:14:34;;;;;;;21.77;15.38;;;18.00;64.30;;;;;;5103167;27;20046;-67
2022/05/10 06:17:01;;;;;;;17.95;14.00;;;18.10;64.20;;;;;;5128850;27;20108;-67
2022/05/10 06:19:30;;;;;;;19.80;15.27;;;18.10;64.00;;;;;;5114357;27;20208;-67
2022/05/10 06:21:57;;;;;;;19.13;14.63;;;18.20;64.10;;;;;;5135885;27;20049;-67
2022/05/10 06:24:23;;;;;;;24.08;16.05;;;18.20;64.10;;;;;;5139308;27;20035;-66
2022/05/10 06:26:49;;;;;;;19.67;15.07;;;18.30;64.00;;;;;;5127167;27;20035;-67
2022/05/10 06:29:16;;;;;;;21.27;16.38;;;18.30;63.90;;;;;;5134846;27;20023;-68
2022/05/10 06:31:46;;;;;;;23.92;15.80;;;18.40;64.00;;;;;;5130460;27;20057;-68
2022/05/10 06:34:12;;;;;;;22.60;16.58;;;18.40;63.80;;;;;;5132839;27;20051;-67
2022/05/10 06:36:39;;;;;;;21.40;15.52;;;18.50;63.70;;;;;;5133424;27;20031;-67
2022/05/10 06:39:04;;;;;;;20.40;15.65;;;18.50;63.40;;;;;;5117726;28;20032;-67
2022/05/10 06:41:32;;;;;;;22.08;15.43;;;18.60;63.90;;;;;;5114366;28;20044;-67
2022/05/10 06:43:59;;;;;;;17.55;14.43;;;18.70;63.00;;;;;;5114587;28;20047;-67
2022/05/10 06:46:26;;;;;;;20.83;15.27;;;18.80;62.70;;;;;;5116150;28;20024;-67
2022/05/10 06:48:52;;;;;;;20.27;15.10;;;18.90;62.30;;;;;;5128033;28;20025;-67
2022/05/10 06:51:23;;;;;;;20.08;14.05;;;19.00;62.00;;;;;;5129579;28;20359;-67
2022/05/10 06:53:50;;;;;;;60.05;18.30;;;19.10;61.70;;;;;;5132939;27;20019;-66
2022/05/10 06:56:16;;;;;;;33.88;16.15;;;19.20;61.40;;;;;;5121935;27;20050;-67
2022/05/10 06:58:41;;;;;;;20.27;15.35;;;19.20;61.20;;;;;;5132408;27;20031;-67
2022/05/10 07:01:11;;;;;;;20.50;14.25;;;19.30;61.00;;;;;;5123904;28;20024;-67
2022/05/10 07:03:39;;;;;;;20.23;14.23;;;19.30;60.70;;;;;;5116942;27;20424;-67
2022/05/10 07:06:07;;;;;;;24.85;14.68;;;19.40;60.70;;;;;;5124023;28;20363;-67
2022/05/10 07:08:33;;;;;;;21.15;14.18;;;19.50;60.60;;;;;;5134624;27;20027;-67
2022/05/10 07:10:58;;;;;;;19.60;14.55;;;19.50;60.60;;;;;;5125992;27;20073;-69
2022/05/10 07:13:27;;;;;;;27.92;15.85;;;19.50;60.60;;;;;;5114346;28;20139;-67
2022/05/10 07:15:55;;;;;;;27.80;15.35;;;19.60;60.90;;;;;;5115542;28;20477;-67
2022/05/10 07:18:21;;;;;;;23.25;14.70;;;19.60;60.90;;;;;;5119195;27;20032;-67
2022/05/10 07:20:49;;;;;;;22.83;14.82;;;19.60;60.80;;;;;;5117315;28;20333;-66
2022/05/10 07:23:18;;;;;;;22.15;14.77;;;19.70;60.80;;;;;;5118130;28;20429;-67
2022/05/10 07:25:43;;;;;;;23.80;14.95;;;19.70;60.70;;;;;;5122880;27;20023;-67
2022/05/10 07:28:09;;;;;;;20.45;13.88;;;19.80;60.70;;;;;;5124967;27;20069;-67
2022/05/10 07:30:35;;;;;;;23.13;14.63;;;19.90;60.80;;;;;;5121842;27;20028;-66
2022/05/10 07:33:02;;;;;;;21.65;13.80;;;20.00;60.90;;;;;;5122323;27;20080;-67
2022/05/10 07:38:14;;;;;;;14.70;11.13;;;20.20;60.30;;;;;;5126146;27;20035;-65
2022/05/10 07:40:42;;;;;;;18.20;11.73;;;20.40;59.90;;;;;;5123901;27;20485;-66
2022/05/10 07:43:12;;;;;;;12.88;9.63;;;20.70;59.20;;;;;;5124771;27;20019;-66
2022/05/10 07:45:39;;;;;;;14.18;10.05;;;21.20;58.40;;;;;;5137804;27;20024;-69
2022/05/10 07:48:06;;;;;;;15.20;10.18;;;21.60;57.50;;;;;;5123500;27;20384;-66
2022/05/10 07:50:32;;;;;;;11.82;9.57;;;21.90;56.70;;;;;;5135469;27;20039;-67
2022/05/10 07:53:06;;;;;;;13.45;9.57;;;22.10;56.20;;;;;;5133612;27;20032;-68
2022/05/10 07:55:32;;;;;;;13.80;10.43;;;22.20;55.90;;;;;;5106487;28;20024;-67
2022/05/10 07:57:58;;;;;;;12.73;8.70;;;22.30;55.60;;;;;;5130984;27;20030;-70
2022/05/10 08:00:24;;;;;;;12.88;10.30;;;22.30;55.40;;;;;;5134763;27;20027;-66
2022/05/10 08:02:49;;;;;;;12.20;8.68;;;22.30;55.30;;;;;;5119347;27;20081;-65
2022/05/10 08:05:25;;;;;;;14.75;9.43;;;22.50;55.30;;;;;;5134932;27;20085;-66
2022/05/10 08:07:52;;;;;;;15.45;9.25;;;22.80;54.80;;;;;;5133415;27;20493;-66
2022/05/10 08:10:20;;;;;;;10.88;8.65;;;23.10;54.20;;;;;;5135093;27;20035;-66
2022/05/10 08:12:46;;;;;;;12.57;8.90;;;23.40;53.80;;;;;;5109409;27;20467;-67
2022/05/10 08:15:13;;;;;;;12.98;9.05;;;23.50;53.40;;;;;;5136659;27;20023;-67
2022/05/10 08:17:39;;;;;;;11.60;8.70;;;23.50;53.10;;;;;;5132806;27;20027;-67
2022/05/10 08:20:07;;;;;;;13.10;9.15;;;23.30;53.10;;;;;;5137758;27;20022;-67
2022/05/10 08:22:33;;;;;;;11.65;8.65;;;23.20;53.10;;;;;;5135816;27;20113;-67
2022/05/10 08:24:58;;;;;;;12.65;9.15;;;23.10;53.30;;;;;;5118261;27;20119;-66
2022/05/10 08:27:24;;;;;;;12.98;8.63;;;23.00;53.50;;;;;;5131776;27;20061;-66
2022/05/10 08:29:50;;;;;;;11.32;8.27;;;23.00;53.40;;;;;;5135938;27;20097;-67
2022/05/10 08:32:16;;;;;;;24.30;9.05;;;23.10;53.10;;;;;;5124709;27;20031;-66
2022/05/10 08:34:42;;;;;;;12.75;9.05;;;23.20;53.00;;;;;;5132539;27;20039;-66
2022/05/10 08:37:08;;;;;;;14.25;8.98;;;23.20;53.00;;;;;;5116115;28;20081;-66
2022/05/10 08:39:34;;;;;;;11.45;7.43;;;23.10;53.00;;;;;;5117060;28;20076;-66
2022/05/10 08:42:23;;;;;;;10.32;7.35;;;23.10;53.10;;;;;;5116772;27;20386;-66
2022/05/10 08:44:54;;;;;;;12.02;7.93;;;23.10;53.10;;;;;;5116629;28;20484;-66
2022/05/10 08:47:20;;;;;;;12.52;7.53;;;23.00;53.00;;;;;;5116485;28;20032;-66
2022/05/10 08:50:05;;;;;;;11.45;7.47;;;23.00;53.30;;;;;;5116535;28;20035;-66
2022/05/10 08:52:38;;;;;;;11.82;8.20;;;22.80;53.10;;;;;;5116767;28;20024;-66
2022/05/10 08:55:06;;;;;;;13.25;7.72;;;22.70;53.30;;;;;;5115355;28;20032;-66
2022/05/10 08:57:34;;;;;;;10.95;7.47;;;22.70;53.50;;;;;;5117356;27;20034;-66
2022/05/10 09:00:09;;;;;;;11.05;7.32;;;22.60;53.70;;;;;;5135509;27;20030;-66
2022/05/10 09:02:45;;;;;;;11.40;6.93;;;22.50;53.70;;;;;;5137227;27;20119;-66
2022/05/10 09:05:37;;;;;;;11.10;6.57;;;22.50;54.40;;;;;;5137363;27;20436;-66
2022/05/10 09:08:08;;;;;;;9.55;6.75;;;22.40;53.90;;;;;;5135208;27;20042;-66
2022/05/10 09:10:46;;;;;;;12.32;6.20;;;22.40;54.00;;;;;;5134236;27;20077;-66
2022/05/10 09:13:16;;;;;;;8.95;6.05;;;22.40;54.00;;;;;;5116361;28;20038;-66
2022/05/10 09:15:49;;;;;;;9.85;6.20;;;22.40;54.20;;;;;;5116265;28;20088;-66
2022/05/10 09:18:29;;;;;;;9.35;6.00;;;22.40;54.20;;;;;;5115849;28;20364;-66
2022/05/10 09:21:14;;;;;;;8.57;5.60;;;22.50;54.20;;;;;;5115067;28;20085;-66
2022/05/10 09:23:58;;;;;;;9.73;5.75;;;22.60;53.80;;;;;;5114859;28;20527;-65
2022/05/10 09:26:32;;;;;;;9.10;5.75;;;22.70;53.50;;;;;;5123056;27;20027;-66
2022/05/10 09:29:10;;;;;;;9.00;5.45;;;22.80;53.30;;;;;;5136394;27;20059;-66
2022/05/10 09:37:25;;;;;;;8.65;4.63;;;23.10;52.60;;;;;;5135570;27;20413;-66
2022/05/10 09:39:57;;;;;;;12.20;5.97;;;23.30;52.10;;;;;;5136045;27;20058;-67
2022/05/10 09:42:28;;;;;;;10.35;4.85;;;23.60;51.60;;;;;;5118322;27;20096;-66
2022/05/10 09:45:11;;;;;;;7.47;5.07;;;23.90;51.00;;;;;;5114548;28;20038;-66
2022/05/10 09:47:38;;;;;;;8.25;4.75;;;24.30;50.30;;;;;;5115816;28;20105;-66
2022/05/10 09:50:16;;;;;;;6.93;4.18;;;24.70;49.70;;;;;;5115462;28;20038;-66
2022/05/10 09:52:42;;;;;;;8.07;4.43;;;25.10;49.00;;;;;;5115341;28;20436;-66
2022/05/10 09:55:15;;;;;;;7.28;4.10;;;25.50;48.50;;;;;;5114582;28;20415;-66
2022/05/10 09:57:42;;;;;;;8.10;4.28;;;25.60;48.10;;;;;;5116129;27;20028;-66
2022/05/10 10:00:13;;;;;;;7.57;3.90;;;25.60;47.90;;;;;;5136113;27;21975;-66
2022/05/10 10:02:43;;;;;;;10.52;3.80;;;25.60;47.60;;;;;;5136331;27;20061;-66
2022/05/10 10:05:30;;;;;;;7.43;4.13;;;25.70;47.30;;;;;;5135646;27;20078;-66
2022/05/10 10:07:57;;;;;;;8.38;3.42;;;25.90;46.70;;;;;;5135847;27;20038;-66
2022/05/10 10:10:25;;;;;;;7.30;4.18;;;26.00;46.60;;;;;;5135956;27;20019;-66
2022/05/10 10:12:51;;;;;;;7.53;3.65;;;26.10;46.20;;;;;;5115916;27;20054;-66
2022/05/10 10:15:40;;;;;;;7.25;3.78;;;26.20;46.20;;;;;;5115269;28;20397;-66
2022/05/10 10:18:42;;;;;;;7.28;4.03;;;26.10;45.70;;;;;;5113877;28;20376;-66
2022/05/10 10:21:11;;;;;;;9.27;3.50;;;26.10;45.80;;;;;;5115371;28;20066;-66
2022/05/10 10:23:47;;;;;;;6.53;3.40;;;26.30;45.60;;;;;;5114909;28;20073;-66
2022/05/10 10:26:16;;;;;;;11.40;3.72;;;26.40;45.30;;;;;;5116220;27;20031;-66
2022/05/10 10:29:11;;;;;;;7.40;3.70;;;26.40;45.30;;;;;;5113916;28;20068;-66
2022/05/10 10:31:50;;;;;;;7.50;3.78;;;26.40;45.30;;;;;;5114912;28;20463;-66
2022/05/10 10:34:35;;;;;;;7.57;3.72;;;26.50;44.90;;;;;;5115278;28;20051;-65
2022/05/10 10:37:10;;;;;;;6.95;3.38;;;26.60;44.60;;;;;;5115566;28;20118;-64
2022/05/10 10:39:51;;;;;;;6.45;3.80;;;26.60;44.70;;;;;;5115334;28;20049;-65
2022/05/10 10:42:36;;;;;;;8.25;3.88;;;26.60;44.50;;;;;;5115208;28;20028;-65
2022/05/10 10:45:04;;;;;;;7.45;3.90;;;26.60;44.60;;;;;;5115194;28;20028;-65
2022/05/10 10:47:57;;;;;;;10.73;4.00;;;26.70;44.50;;;;;;5114101;28;20475;-65
2022/05/10 10:50:35;;;;;;;7.38;4.03;;;26.70;44.50;;;;;;5117936;28;20073;-65
2022/05/10 10:53:03;;;;;;;6.45;3.95;;;26.70;44.30;;;;;;5117934;28;20027;-65
2022/05/10 10:55:43;;;;;;;9.10;4.00;;;26.80;44.30;;;;;;5118984;28;20172;-65
2022/05/10 10:58:41;;;;;;;6.43;3.97;;;26.70;44.10;;;;;;5126214;27;20027;-64
2022/05/10 11:01:41;;;;;;;9.40;3.70;;;26.60;44.10;;;;;;5139222;27;20054;-64
2022/05/10 11:04:30;;;;;;;6.32;3.50;;;26.50;44.10;;;;;;5138095;27;20031;-64
2022/05/10 11:06:56;;;;;;;8.80;4.13;;;26.50;44.20;;;;;;5139223;27;20059;-64
2022/05/10 11:09:40;;;;;;;7.55;4.03;;;26.50;44.20;;;;;;5139201;27;20031;-65
2022/05/10 11:12:12;;;;;;;9.13;4.20;;;26.50;44.10;;;;;;5120245;27;20031;-64
2022/05/10 11:15:08;;;;;;;8.27;4.18;;;26.30;44.20;;;;;;5138990;27;20050;-64
2022/05/10 11:18:17;;;;;;;6.97;3.65;;;26.20;44.40;;;;;;5138182;27;20027;-64
2022/05/10 11:20:56;;;;;;;8.15;4.40;;;26.20;44.60;;;;;;5118634;28;20087;-64
2022/05/10 11:23:42;;;;;;;8.15;3.97;;;26.00;44.80;;;;;;5118525;28;20028;-65
2022/05/10 11:26:21;;;;;;;8.35;4.38;;;26.00;45.00;;;;;;5113701;27;20039;-64
2022/05/10 11:28:58;;;;;;;8.35;3.78;;;26.00;45.00;;;;;;5139446;27;20032;-64
2022/05/10 11:31:50;;;;;;;6.88;3.65;;;25.90;44.80;;;;;;5137699;27;20459;-64
2022/05/10 11:34:20;;;;;;;7.30;3.90;;;25.80;44.90;;;;;;5138292;27;20051;-65
2022/05/10 11:36:49;;;;;;;8.15;3.78;;;25.70;45.00;;;;;;5135896;27;20035;-65
2022/05/10 11:39:53;;;;;;;8.10;3.58;;;25.70;45.10;;;;;;5137324;27;20186;-64
2022/05/10 11:42:25;;;;;;;8.93;4.43;;;25.60;45.00;;;;;;5126512;27;20196;-64
2022/05/10 11:45:09;;;;;;;8.50;3.97;;;25.60;45.00;;;;;;5137887;27;20031;-64
2022/05/10 11:47:50;;;;;;;8.57;4.20;;;25.60;44.90;;;;;;5120235;27;20127;-65
2022/05/10 11:51:38;;;;;;;8.55;4.07;;;25.60;45.00;;;;;;5118175;28;20122;-65
2022/05/10 11:53:41;;;;;;;7.00;3.70;;;25.60;45.00;;;;;;5117912;28;20050;-65
2022/05/10 11:56:08;;;;;;;7.50;3.92;;;25.50;45.00;;;;;;5100076;28;20080;-64
2022/05/10 11:58:35;;;;;;;9.20;3.80;;;25.40;45.70;;;;;;5117024;27;20038;-64
2022/05/10 12:01:04;;;;;;;9.07;4.40;;;25.40;45.20;;;;;;5108692;27;20042;-65
2022/05/10 12:03:39;;;;;;;8.48;3.95;;;25.40;45.30;;;;;;5131047;27;20031;-67
2022/05/10 12:06:23;;;;;;;7.75;4.28;;;25.40;45.60;;;;;;5134600;27;20034;-65
2022/05/10 12:08:54;;;;;;;9.88;3.65;;;25.40;45.60;;;;;;5116388;27;20105;-65
2022/05/10 12:11:30;;;;;;;;;;;25.50;45.70;;;;;;5118976;27;20503;-65
2022/05/10 12:22:19;;;;;;;7.97;3.90;;;25.50;45.20;;;;;;5129134;27;20513;-65
2022/05/10 12:24:47;;;;;;;8.10;4.50;;;25.50;45.10;;;;;;5138004;27;20027;-65
2022/05/10 12:27:12;;;;;;;8.48;4.53;;;25.50;45.20;;;;;;5121200;27;20028;-65
2022/05/10 12:29:38;;;;;;;7.20;3.78;;;25.50;45.30;;;;;;5115631;28;20023;-65
2022/05/10 12:32:36;;;;;;;8.98;4.10;;;25.50;45.30;;;;;;5118020;27;20023;-65
2022/05/10 12:35:26;;;;;;;6.60;3.85;;;25.50;45.80;;;;;;5136844;27;20035;-64
2022/05/10 12:37:58;;;;;;;8.50;3.88;;;25.50;45.20;;;;;;5131572;27;20035;-64
2022/05/10 12:40:34;;;;;;;8.57;3.97;;;25.50;45.30;;;;;;5134422;27;20122;-65
2022/05/10 12:43:42;;;;;;;7.57;4.20;;;25.50;45.30;;;;;;5117060;28;20336;-65
2022/05/10 12:46:37;;;;;;;9.75;4.07;;;25.50;45.20;;;;;;5098513;28;20035;-65
2022/05/10 12:49:19;;;;;;;6.75;3.78;;;25.40;45.10;;;;;;5115434;28;20022;-64
2022/05/10 12:52:01;;;;;;;7.97;4.07;;;25.40;45.00;;;;;;5116614;28;20122;-65
2022/05/10 12:54:37;;;;;;;8.57;3.95;;;25.40;45.00;;;;;;5122789;27;20344;-64
2022/05/10 12:57:15;;;;;;;8.05;4.15;;;25.50;45.10;;;;;;5137100;27;20045;-65
2022/05/10 13:00:01;;;;;;;9.70;4.13;;;25.50;45.10;;;;;;5136055;27;20041;-65
2022/05/10 13:02:31;;;;;;;9.60;4.43;;;25.50;45.10;;;;;;5137088;27;20035;-66
2022/05/10 13:05:03;;;;;;;7.32;4.03;;;25.50;45.10;;;;;;5122940;27;20306;-66
2022/05/10 13:07:40;;;;;;;8.52;3.95;;;25.40;45.00;;;;;;5130255;27;20357;-65
2022/05/10 13:10:21;;;;;;;9.07;3.97;;;25.30;45.00;;;;;;5134823;27;20027;-65
2022/05/10 13:12:53;;;;;;;8.02;3.72;;;25.30;45.00;;;;;;5133828;27;20031;-65
2022/05/10 13:15:21;;;;;;;7.82;3.85;;;25.30;45.80;;;;;;5135454;27;20432;-65
2022/05/10 13:17:51;;;;;;;9.90;3.72;;;25.30;45.10;;;;;;5131758;27;20102;-65
2022/05/10 13:20:22;;;;;;;8.40;3.67;;;25.20;45.00;;;;;;5118925;27;20439;-65
2022/05/10 13:22:54;;;;;;;10.00;4.05;;;25.20;45.10;;;;;;5115664;27;20034;-66
2022/05/10 13:25:35;;;;;;;8.93;4.05;;;25.30;45.30;;;;;;5129831;27;20027;-65
2022/05/10 13:28:18;;;;;;;7.78;4.07;;;25.20;45.20;;;;;;5136308;27;20027;-66
2022/05/10 13:30:47;;;;;;;8.45;3.90;;;25.20;45.30;;;;;;5125735;27;20029;-65